TimeEST,TemperatureF,Dew PointF,Humidity,Sea Level PressureIn,VisibilityMPH,Wind Direction,Wind SpeedMPH,Gust SpeedMPH,PrecipitationIn,Events,Conditions,WindDirDegrees,DateUTC
3:34 AM,8.2,3.2,80,30.30,10.0,NE,3.5,-,N/A,,Overcast,40,2013-02-21 08:34:00
3:53 AM,8.2,3.2,80,30.29,10.0,NE,5.8,-,N/A,,Overcast,40,2013-02-21 08:53:00
4:13 AM,8.1,3.2,81,30.30,10.0,NE,6.9,-,N/A,,Overcast,40,2013-02-21 09:13:00
4:34 AM,7.7,3.0,81,30.31,10.0,NE,5.8,-,N/A,,Overcast,50,2013-02-21 09:34:00
4:53 AM,7.5,2.7,81,30.33,10.0,NE,6.9,-,N/A,,Overcast,40,2013-02-21 09:53:00
7:53 AM,6.8,1.8,80,30.39,10.0,NNE,6.9,-,N/A,,Overcast,20,2013-02-21 12:53:00
8:53 AM,7.7,2.5,79,30.42,10.0,North,10.4,-,N/A,,Overcast,350,2013-02-21 13:53:00
9:53 AM,10.0,3.2,74,30.40,10.0,NNE,6.9,-,N/A,,Mostly Cloudy,20,2013-02-21 14:53:00
11:14 AM,12.7,3.4,66,30.36,10.0,NE,11.5,-,N/A,,Clear,50,2013-02-21 16:14:00
11:33 AM,12.9,3.0,65,30.36,10.0,ENE,10.4,-,N/A,,Scattered Clouds,60,2013-02-21 16:33:00
11:54 AM,12.2,3.4,68,30.36,10.0,ENE,9.2,-,N/A,,Scattered Clouds,70,2013-02-21 16:54:00
12:14 PM,12.4,2.7,65,30.40,10.0,South,4.6,-,N/A,,Scattered Clouds,170,2013-02-21 17:14:00
12:33 PM,11.8,3.2,68,30.41,10.0,Calm,Calm,-,N/A,,Mostly Cloudy,0,2013-02-21 17:33:00
12:54 PM,11.3,3.2,70,30.40,5.0,Calm,Calm,-,N/A,Snow,Light Snow,0,2013-02-21 17:54:00
1:14 PM,12.6,3.9,68,30.40,3.0,SSW,3.5,-,N/A,Snow,Light Snow,210,2013-02-21 18:14:00
1:33 PM,13.1,4.3,68,30.40,5.0,Calm,Calm,-,N/A,Snow,Light Snow,0,2013-02-21 18:33:00
1:54 PM,13.8,4.3,66,30.41,10.0,WNW,4.6,-,N/A,,Scattered Clouds,290,2013-02-21 18:54:00
2:13 PM,14.7,4.8,65,30.40,10.0,Calm,Calm,-,N/A,,Mostly Cloudy,0,2013-02-21 19:13:00
2:33 PM,16.3,5.7,63,30.40,10.0,NW,4.6,-,N/A,,Scattered Clouds,310,2013-02-21 19:33:00
2:54 PM,16.9,6.6,64,30.40,10.0,Calm,Calm,-,N/A,,Clear,0,2013-02-21 19:54:00
3:13 PM,17.1,7.5,66,30.39,10.0,NE,4.6,-,N/A,,Clear,50,2013-02-21 20:13:00
3:33 PM,18.0,7.7,64,30.39,10.0,ENE,5.8,-,N/A,,Clear,60,2013-02-21 20:33:00
3:54 PM,17.6,8.1,66,30.38,10.0,NE,4.6,-,N/A,,Clear,50,2013-02-21 20:54:00
4:13 PM,17.6,8.6,68,30.37,10.0,ENE,4.6,-,N/A,,Clear,60,2013-02-21 21:13:00
4:34 PM,17.6,9.0,69,30.37,10.0,NE,4.6,-,N/A,,Clear,50,2013-02-21 21:34:00
4:54 PM,18.1,9.5,69,30.35,10.0,ENE,5.8,-,N/A,,Clear,70,2013-02-21 21:54:00
5:13 PM,17.8,10.2,72,30.35,10.0,ENE,4.6,-,N/A,,Clear,70,2013-02-21 22:13:00
5:34 PM,18.5,10.9,72,30.36,10.0,NE,4.6,-,N/A,,Clear,40,2013-02-21 22:34:00
5:54 PM,18.5,11.3,73,30.38,10.0,ENE,5.8,-,N/A,,Clear,60,2013-02-21 22:54:00
6:13 PM,18.0,10.8,73,30.39,10.0,ENE,5.8,-,N/A,,Clear,60,2013-02-21 23:13:00
6:34 PM,17.2,10.6,75,30.38,10.0,NE,6.9,-,N/A,,Clear,50,2013-02-21 23:34:00
6:54 PM,17.4,11.1,76,30.38,10.0,NE,6.9,-,N/A,,Clear,40,2013-02-21 23:54:00
7:13 PM,16.7,11.7,81,30.38,10.0,NE,6.9,-,N/A,,Clear,40,2013-02-22 00:13:00
7:34 PM,16.7,11.8,81,30.38,10.0,NE,8.1,-,N/A,,Clear,40,2013-02-22 00:34:00
7:53 PM,16.5,11.7,81,30.37,10.0,NE,6.9,-,N/A,,Clear,40,2013-02-22 00:53:00
8:13 PM,16.7,11.7,81,30.37,10.0,NE,8.1,-,N/A,,Clear,50,2013-02-22 01:13:00
8:34 PM,16.5,12.0,82,30.36,10.0,ENE,8.1,-,N/A,,Clear,60,2013-02-22 01:34:00
8:53 PM,16.9,11.8,81,30.35,10.0,ENE,8.1,-,N/A,,Clear,60,2013-02-22 01:53:00
9:14 PM,17.2,11.8,79,30.35,10.0,ENE,6.9,-,N/A,,Clear,60,2013-02-22 02:14:00
9:34 PM,17.2,11.8,79,30.34,10.0,ENE,8.1,-,N/A,,Clear,60,2013-02-22 02:34:00
9:53 PM,17.2,11.8,79,30.35,10.0,ENE,4.6,-,N/A,,Clear,60,2013-02-22 02:53:00
10:14 PM,16.7,11.8,81,30.35,10.0,NE,4.6,-,N/A,,Clear,50,2013-02-22 03:14:00
10:34 PM,16.2,11.7,82,30.35,10.0,NE,6.9,-,N/A,,Clear,50,2013-02-22 03:34:00
10:53 PM,16.7,12.2,82,30.36,10.0,ENE,4.6,-,N/A,,Clear,60,2013-02-22 03:53:00
11:14 PM,14.9,11.1,85,30.35,10.0,ENE,6.9,-,N/A,,Clear,60,2013-02-22 04:14:00
11:34 PM,16.9,12.7,84,30.32,10.0,ENE,9.2,-,N/A,,Mostly Cloudy,60,2013-02-22 04:34:00
11:53 PM,17.8,13.1,82,30.30,10.0,ENE,8.1,-,N/A,,Overcast,60,2013-02-22 04:53:00